createdAt,value
2022-09-24T00:00:07.616Z,11.12
2022-09-24T00:01:16.003Z,11.16
2022-09-24T00:02:19.428Z,11.22
2022-09-24T00:03:23.718Z,11.21
2022-09-24T00:04:27.417Z,11.21
2022-09-24T00:05:29.660Z,11.19
2022-09-24T00:06:35.976Z,11.27
2022-09-24T00:07:38.188Z,11.48
2022-09-24T00:08:41.743Z,11.56
2022-09-24T00:09:43.932Z,11.73
2022-09-24T00:10:48.923Z,11.77
2022-09-24T00:11:53.223Z,11.84
2022-09-24T00:12:55.739Z,11.85
2022-09-24T00:13:59.300Z,11.89
2022-09-24T00:15:01.542Z,11.95
2022-09-24T00:16:07.650Z,11.96
2022-09-24T00:17:09.909Z,11.89
2022-09-24T00:18:12.878Z,11.93
2022-09-24T00:19:15.200Z,11.78
2022-09-24T00:20:17.494Z,11.63
2022-09-24T00:21:22.695Z,11.61
2022-09-24T00:22:24.992Z,11.66
2022-09-24T00:23:27.362Z,11.69
2022-09-24T00:24:47.978Z,11.63
2022-09-24T00:26:09.173Z,11.52
2022-09-24T00:27:11.622Z,11.45
2022-09-24T00:28:14.265Z,11.47
2022-09-24T00:29:21.743Z,11.41
2022-09-24T00:30:24.399Z,11.43
2022-09-24T00:31:27.607Z,11.41
2022-09-24T00:32:30.243Z,11.38
2022-09-24T00:33:36.480Z,11.39
2022-09-24T00:34:39.196Z,11.38
2022-09-24T00:35:42.085Z,11.41
2022-09-24T00:36:46.650Z,11.48
2022-09-24T00:37:48.921Z,11.49
2022-09-24T00:38:56.802Z,11.50
2022-09-24T00:39:59.677Z,11.52
2022-09-24T00:41:03.233Z,11.59
2022-09-24T00:42:05.731Z,11.62
2022-09-24T00:43:31.104Z,11.75
2022-09-24T00:44:45.251Z,11.79
2022-09-24T00:45:48.066Z,11.68
2022-09-24T00:46:50.711Z,11.60
2022-09-24T00:47:54.314Z,11.59
2022-09-24T00:49:07.092Z,11.46
2022-09-24T00:50:34.705Z,11.49
2022-09-24T00:51:38.128Z,11.64
2022-09-24T00:52:45.722Z,11.72
2022-09-24T00:53:52.457Z,11.80
2022-09-24T00:54:55.386Z,11.85
2022-09-24T00:55:58.224Z,11.92
2022-09-24T00:57:01.154Z,11.91
2022-09-24T00:58:07.173Z,11.95
2022-09-24T00:59:13.877Z,11.74
2022-09-24T01:00:16.391Z,11.69
2022-09-24T01:01:22.913Z,11.73
2022-09-24T01:02:25.288Z,11.78
2022-09-24T01:03:28.906Z,11.84
2022-09-24T01:04:31.830Z,11.95
2022-09-24T01:05:36.187Z,11.97
2022-09-24T01:06:38.632Z,11.98
2022-09-24T01:07:41.072Z,11.80
2022-09-24T01:08:44.233Z,11.75
2022-09-24T01:09:47.111Z,11.77
2022-09-24T01:10:56.414Z,11.66
2022-09-24T01:12:06.275Z,11.57
2022-09-24T01:13:28.993Z,11.55
2022-09-24T01:14:34.155Z,11.42
2022-09-24T01:15:47.262Z,11.41
2022-09-24T01:17:16.761Z,11.42
2022-09-24T01:18:32.390Z,11.42
2022-09-24T01:19:49.539Z,11.38
2022-09-24T01:21:03.636Z,11.27
2022-09-24T01:22:21.929Z,11.24
2022-09-24T01:23:48.746Z,11.22
2022-09-24T01:25:01.568Z,11.10
2022-09-24T01:26:36.320Z,11.17
2022-09-24T01:27:56.965Z,11.14
2022-09-24T01:29:34.904Z,11.26
2022-09-24T01:30:42.259Z,11.28
2022-09-24T01:31:53.426Z,11.37
2022-09-24T01:33:08.658Z,11.43
2022-09-24T01:34:12.629Z,11.49
2022-09-24T01:35:57.991Z,11.46
2022-09-24T01:37:03.729Z,11.42
2022-09-24T01:38:18.394Z,11.29
2022-09-24T01:39:21.673Z,11.25
2022-09-24T01:40:27.670Z,11.18
2022-09-24T01:41:34.315Z,11.13
2022-09-24T01:42:40.306Z,11.15
2022-09-24T01:43:43.440Z,11.23
2022-09-24T01:44:47.745Z,11.31
2022-09-24T01:45:50.662Z,11.33
2022-09-24T01:46:54.140Z,11.36
2022-09-24T01:47:56.582Z,11.40
2022-09-24T01:48:59.257Z,11.45
2022-09-24T01:50:03.106Z,11.48
2022-09-24T01:51:44.377Z,11.47
2022-09-24T01:53:00.246Z,11.40
2022-09-24T01:54:09.730Z,11.39
2022-09-24T01:55:15.940Z,11.29
2022-09-24T01:56:26.745Z,11.30
2022-09-24T01:57:52.648Z,11.28
2022-09-24T01:59:06.789Z,11.33
2022-09-24T02:00:18.165Z,11.41
2022-09-24T02:01:30.981Z,11.40
2022-09-24T02:02:35.623Z,11.38
2022-09-24T02:03:45.685Z,11.36
2022-09-24T02:04:54.389Z,11.28
2022-09-24T02:06:04.432Z,11.19
2022-09-24T02:07:33.541Z,11.28
2022-09-24T02:08:46.390Z,11.14
2022-09-24T02:09:49.671Z,11.11
2022-09-24T02:11:00.990Z,11.13
2022-09-24T02:12:11.276Z,11.19
2022-09-24T02:13:17.387Z,11.16
2022-09-24T02:14:20.240Z,11.19
2022-09-24T02:15:32.845Z,11.19
2022-09-24T02:16:48.121Z,11.22
2022-09-24T02:17:54.821Z,11.17
2022-09-24T02:19:00.724Z,11.20
2022-09-24T02:20:08.732Z,11.19
2022-09-24T02:21:13.797Z,11.23
2022-09-24T02:22:17.582Z,11.30
2022-09-24T02:23:20.434Z,11.38
2022-09-24T02:24:30.452Z,11.42
2022-09-24T02:25:57.843Z,11.40
2022-09-24T02:27:00.482Z,11.30
2022-09-24T02:28:03.302Z,11.37
2022-09-24T02:29:05.918Z,11.34
2022-09-24T02:30:09.128Z,11.29
2022-09-24T02:31:16.253Z,11.07
2022-09-24T02:32:21.591Z,11.00
2022-09-24T02:33:44.207Z,11.06
2022-09-24T02:34:51.706Z,11.11
2022-09-24T02:35:53.923Z,11.11
2022-09-24T02:37:00.578Z,11.07
2022-09-24T02:38:06.217Z,11.07
2022-09-24T02:39:08.734Z,11.14
2022-09-24T02:40:13.918Z,11.03
2022-09-24T02:41:16.783Z,10.96
2022-09-24T02:42:20.343Z,10.96
2022-09-24T02:43:22.653Z,10.94
2022-09-24T02:44:24.876Z,10.87
2022-09-24T02:45:27.192Z,10.86
2022-09-24T02:46:29.763Z,10.82
2022-09-24T02:47:32.896Z,10.87
2022-09-24T02:48:37.086Z,10.95
2022-09-24T02:49:40.078Z,11.05
2022-09-24T02:50:42.591Z,11.14
2022-09-24T02:51:45.043Z,11.21
2022-09-24T02:52:47.304Z,11.30
2022-09-24T02:53:50.054Z,11.27
2022-09-24T02:54:52.250Z,11.29
2022-09-24T02:55:54.434Z,11.13
2022-09-24T02:56:57.002Z,11.02
2022-09-24T02:57:59.889Z,11.01
2022-09-24T02:59:02.772Z,10.96
2022-09-24T03:00:06.261Z,10.89
2022-09-24T03:01:08.596Z,10.87
2022-09-24T03:02:10.945Z,10.82
2022-09-24T03:03:13.355Z,10.79
2022-09-24T03:04:16.370Z,10.79
2022-09-24T03:05:18.605Z,10.88
2022-09-24T03:06:21.310Z,10.93
2022-09-24T03:07:23.629Z,10.99
2022-09-24T03:08:26.166Z,11.07
2022-09-24T03:09:28.793Z,11.01
2022-09-24T03:10:31.707Z,11.09
2022-09-24T03:11:35.539Z,11.17
2022-09-24T03:12:37.884Z,11.24
2022-09-24T03:13:40.514Z,11.28
2022-09-24T03:14:42.840Z,11.30
2022-09-24T03:15:46.215Z,11.30
2022-09-24T03:16:48.523Z,11.30
2022-09-24T03:17:50.722Z,11.30
2022-09-24T03:18:52.939Z,11.27
2022-09-24T03:19:55.230Z,11.23
2022-09-24T03:20:59.531Z,11.21
2022-09-24T03:22:01.861Z,10.99
2022-09-24T03:23:04.170Z,10.91
2022-09-24T03:24:06.501Z,10.82
2022-09-24T03:25:09.431Z,10.76
2022-09-24T03:26:11.786Z,10.71
2022-09-24T03:27:14.078Z,10.86
2022-09-24T03:28:17.224Z,10.91
2022-09-24T03:29:39.394Z,11.02
2022-09-24T03:31:00.157Z,11.02
2022-09-24T03:32:02.873Z,10.90
2022-09-24T03:33:05.214Z,10.91
2022-09-24T03:34:07.533Z,10.94
2022-09-24T03:35:11.355Z,10.97
2022-09-24T03:36:16.244Z,11.06
2022-09-24T03:37:18.453Z,11.14
2022-09-24T03:38:20.708Z,11.24
2022-09-24T03:39:23.533Z,11.30
2022-09-24T03:40:26.450Z,11.33
2022-09-24T03:41:29.123Z,11.32
2022-09-24T03:42:32.432Z,11.35
2022-09-24T03:43:35.922Z,11.29
2022-09-24T03:44:38.400Z,11.29
2022-09-24T03:45:40.831Z,11.20
2022-09-24T03:46:43.577Z,11.10
2022-09-24T03:47:45.825Z,11.01
2022-09-24T03:48:49.047Z,11.02
2022-09-24T03:49:51.333Z,11.07
2022-09-24T03:50:53.948Z,11.02
2022-09-24T03:51:56.169Z,11.06
2022-09-24T03:52:58.353Z,11.03
2022-09-24T03:54:00.601Z,10.93
2022-09-24T03:55:02.834Z,10.89
2022-09-24T03:56:07.259Z,10.85
2022-09-24T03:57:09.575Z,10.73
2022-09-24T03:58:11.837Z,10.61
2022-09-24T03:59:14.598Z,10.53
2022-09-24T04:00:16.879Z,10.42
2022-09-24T04:01:21.275Z,10.44
2022-09-24T04:02:23.938Z,10.50
2022-09-24T04:03:26.338Z,10.61
2022-09-24T04:04:28.558Z,10.56
2022-09-24T04:05:31.416Z,10.55
2022-09-24T04:06:33.728Z,10.62
2022-09-24T04:07:35.987Z,10.70
2022-09-24T04:08:38.218Z,10.66
2022-09-24T04:09:41.521Z,10.66
2022-09-24T04:10:46.328Z,10.54
2022-09-24T04:11:48.661Z,10.52
2022-09-24T04:12:52.194Z,10.52
2022-09-24T04:13:54.629Z,10.53
2022-09-24T04:14:56.849Z,10.48
2022-09-24T04:16:03.795Z,10.50
2022-09-24T04:17:06.090Z,10.53
2022-09-24T04:18:08.826Z,10.51
2022-09-24T04:19:18.749Z,10.44
2022-09-24T04:20:22.671Z,10.40
2022-09-24T04:21:24.903Z,10.50
2022-09-24T04:22:29.101Z,10.48
2022-09-24T04:23:31.461Z,10.47
2022-09-24T04:24:34.231Z,10.50
2022-09-24T04:25:37.254Z,10.45
2022-09-24T04:26:39.516Z,10.43
2022-09-24T04:27:42.872Z,10.49
2022-09-24T04:28:45.128Z,10.51
2022-09-24T04:29:47.417Z,10.44
2022-09-24T04:30:49.688Z,10.46
2022-09-24T04:31:52.041Z,10.46
2022-09-24T04:32:54.540Z,10.44
2022-09-24T04:33:56.744Z,10.45
2022-09-24T04:35:01.067Z,10.55
2022-09-24T04:36:05.281Z,10.58
2022-09-24T04:37:09.491Z,10.44
2022-09-24T04:38:12.089Z,10.53
2022-09-24T04:39:15.504Z,10.56
2022-09-24T04:40:18.247Z,10.50
2022-09-24T04:41:20.651Z,10.44
2022-09-24T04:42:22.881Z,10.49
2022-09-24T04:43:25.050Z,10.53
2022-09-24T04:44:30.081Z,10.49
2022-09-24T04:45:33.990Z,10.49
2022-09-24T04:46:36.175Z,10.56
2022-09-24T04:47:40.837Z,10.56
2022-09-24T04:48:43.452Z,10.54
2022-09-24T04:49:45.789Z,10.53
2022-09-24T04:50:48.093Z,10.57
2022-09-24T04:51:50.311Z,10.59
2022-09-24T04:52:53.056Z,10.74
2022-09-24T04:53:55.263Z,10.86
2022-09-24T04:54:58.205Z,10.89
2022-09-24T04:56:00.528Z,10.99
2022-09-24T04:57:02.700Z,10.99
2022-09-24T04:58:04.972Z,10.78
2022-09-24T04:59:07.310Z,10.71
2022-09-24T05:00:15.326Z,10.72
2022-09-24T05:01:17.921Z,10.72
2022-09-24T05:02:20.411Z,10.69
2022-09-24T05:03:22.914Z,10.72
2022-09-24T05:04:25.528Z,10.83
2022-09-24T05:05:28.199Z,10.90
2022-09-24T05:06:30.429Z,10.93
2022-09-24T05:07:32.624Z,10.89
2022-09-24T05:08:34.831Z,10.80
2022-09-24T05:09:37.555Z,10.70
2022-09-24T05:10:39.873Z,10.65
2022-09-24T05:11:42.101Z,10.68
2022-09-24T05:12:44.315Z,10.66
2022-09-24T05:13:46.550Z,10.63
2022-09-24T05:14:48.742Z,10.66
2022-09-24T05:15:51.113Z,10.67
2022-09-24T05:16:54.206Z,10.59
2022-09-24T05:17:56.552Z,10.52
2022-09-24T05:18:58.845Z,10.46
2022-09-24T05:20:01.379Z,10.33
2022-09-24T05:21:03.703Z,10.34
2022-09-24T05:22:06.137Z,10.41
2022-09-24T05:23:08.425Z,10.53
2022-09-24T05:24:10.623Z,10.62
2022-09-24T05:25:14.726Z,10.57
2022-09-24T05:26:35.665Z,10.66
2022-09-24T05:27:37.943Z,10.67
2022-09-24T05:28:42.178Z,10.64
2022-09-24T05:29:44.479Z,10.67
2022-09-24T05:30:47.306Z,10.77
2022-09-24T05:31:49.995Z,10.83
2022-09-24T05:32:52.869Z,10.85
2022-09-24T05:33:57.441Z,10.85
2022-09-24T05:34:59.650Z,10.90
2022-09-24T05:36:01.907Z,10.93
2022-09-24T05:37:04.815Z,10.94
2022-09-24T05:38:07.028Z,10.97
2022-09-24T05:39:11.671Z,11.04
2022-09-24T05:40:32.387Z,10.91
2022-09-24T05:41:34.668Z,10.92
2022-09-24T05:42:36.901Z,11.05
2022-09-24T05:43:41.043Z,11.12
2022-09-24T05:44:46.411Z,11.19
2022-09-24T05:45:50.954Z,11.21
2022-09-24T05:46:53.327Z,11.23
2022-09-24T05:47:55.837Z,11.20
2022-09-24T05:48:58.475Z,11.19
2022-09-24T05:50:00.706Z,11.06
2022-09-24T05:51:03.634Z,11.01
2022-09-24T05:52:06.496Z,10.92
2022-09-24T05:53:09.366Z,10.83
2022-09-24T05:54:11.644Z,10.76
2022-09-24T05:55:14.047Z,10.69
2022-09-24T05:56:16.920Z,10.72
2022-09-24T05:57:19.629Z,10.68
2022-09-24T05:58:22.007Z,10.76
2022-09-24T05:59:24.928Z,10.86
2022-09-24T06:00:27.183Z,10.92
2022-09-24T06:01:32.606Z,10.82
2022-09-24T06:02:34.984Z,10.82
2022-09-24T06:03:37.233Z,10.93
2022-09-24T06:04:39.673Z,11.05
2022-09-24T06:05:49.548Z,11.20
2022-09-24T06:06:52.171Z,11.26
2022-09-24T06:07:54.743Z,11.38
2022-09-24T06:08:57.136Z,11.45
2022-09-24T06:10:00.722Z,11.52
2022-09-24T06:11:05.290Z,11.54
2022-09-24T06:12:08.269Z,11.33
2022-09-24T06:13:11.524Z,11.17
2022-09-24T06:14:14.960Z,11.14
2022-09-24T06:15:17.184Z,11.13
2022-09-24T06:16:19.807Z,11.25
2022-09-24T06:17:22.160Z,11.43
2022-09-24T06:18:24.530Z,11.55
2022-09-24T06:19:26.787Z,11.55
2022-09-24T06:20:29.392Z,11.49
2022-09-24T06:21:33.196Z,11.56
2022-09-24T06:22:35.724Z,11.62
2022-09-24T06:23:39.652Z,11.62
2022-09-24T06:24:42.274Z,11.51
2022-09-24T06:25:49.710Z,11.53
2022-09-24T06:26:52.343Z,11.66
2022-09-24T06:28:02.636Z,11.67
2022-09-24T06:29:05.542Z,11.74
2022-09-24T06:30:08.689Z,11.67
2022-09-24T06:31:12.468Z,11.63
2022-09-24T06:32:14.789Z,11.62
2022-09-24T06:33:17.207Z,11.66
2022-09-24T06:34:19.530Z,11.60
2022-09-24T06:35:21.823Z,11.65
2022-09-24T06:36:24.100Z,11.67
2022-09-24T06:37:26.336Z,11.67
2022-09-24T06:38:30.650Z,11.69
2022-09-24T06:39:32.853Z,11.81
2022-09-24T06:40:37.358Z,11.77
2022-09-24T06:41:39.951Z,11.76
2022-09-24T06:42:42.748Z,11.80
2022-09-24T06:43:45.684Z,11.67
2022-09-24T06:44:48.267Z,11.65
2022-09-24T06:45:50.528Z,11.67
2022-09-24T06:46:52.835Z,11.65
2022-09-24T06:47:56.603Z,11.66
2022-09-24T06:48:58.780Z,11.74
2022-09-24T06:50:01.003Z,11.70
2022-09-24T06:51:05.153Z,11.71
2022-09-24T06:52:07.471Z,11.93
2022-09-24T06:53:10.926Z,12.19
2022-09-24T06:54:13.155Z,12.30
2022-09-24T06:55:15.547Z,12.49
2022-09-24T06:56:17.730Z,12.60
2022-09-24T06:57:19.905Z,12.53
2022-09-24T06:58:26.505Z,12.42
2022-09-24T06:59:29.584Z,12.46
2022-09-24T07:00:32.542Z,12.50
2022-09-24T07:01:34.967Z,12.48
2022-09-24T07:02:37.373Z,12.36
2022-09-24T07:03:40.187Z,12.33
2022-09-24T07:04:42.363Z,12.34
2022-09-24T07:05:44.556Z,12.29
2022-09-24T07:07:05.632Z,12.21
2022-09-24T07:08:07.918Z,12.21
2022-09-24T07:09:10.095Z,12.30
2022-09-24T07:10:13.317Z,12.46
2022-09-24T07:11:15.842Z,12.65
2022-09-24T07:12:18.057Z,12.54
2022-09-24T07:13:21.493Z,12.38
2022-09-24T07:14:23.797Z,12.32
2022-09-24T07:15:26.091Z,12.35
2022-09-24T07:16:28.327Z,12.23
2022-09-24T07:17:33.928Z,12.17
2022-09-24T07:18:38.577Z,12.19
2022-09-24T07:19:41.440Z,12.38
2022-09-24T07:20:43.833Z,12.53
2022-09-24T07:21:46.249Z,12.49
2022-09-24T07:22:48.529Z,12.58
2022-09-24T07:23:55.106Z,12.82
2022-09-24T07:25:00.096Z,12.82
2022-09-24T07:26:02.486Z,12.82
2022-09-24T07:27:06.143Z,12.59
2022-09-24T07:28:11.294Z,12.58
2022-09-24T07:29:13.659Z,12.72
2022-09-24T07:30:16.382Z,12.69
2022-09-24T07:31:18.824Z,12.69
2022-09-24T07:32:24.007Z,12.70
2022-09-24T07:33:31.570Z,12.72
2022-09-24T07:34:34.228Z,12.80
2022-09-24T07:35:40.092Z,12.87
2022-09-24T07:36:43.064Z,12.92
2022-09-24T07:37:45.544Z,12.78
2022-09-24T07:38:48.425Z,12.77
2022-09-24T07:39:50.787Z,12.77
2022-09-24T07:40:58.381Z,12.85
2022-09-24T07:42:02.580Z,12.97
2022-09-24T07:43:12.295Z,12.90
2022-09-24T07:44:15.183Z,13.01
2022-09-24T07:45:17.661Z,13.03
2022-09-24T07:46:20.198Z,13.14
2022-09-24T07:47:23.006Z,13.22
2022-09-24T07:48:25.460Z,13.24
2022-09-24T07:49:32.107Z,13.23
2022-09-24T07:50:39.229Z,13.25
2022-09-24T07:51:41.789Z,13.25
2022-09-24T07:52:50.054Z,13.26
2022-09-24T07:53:52.898Z,13.26
2022-09-24T07:54:55.507Z,13.20
2022-09-24T07:56:01.229Z,13.12
2022-09-24T07:57:03.907Z,13.20
2022-09-24T07:58:14.090Z,13.34
2022-09-24T07:59:16.481Z,13.46
2022-09-24T08:00:20.435Z,13.46
2022-09-24T08:01:22.962Z,13.45
2022-09-24T08:02:25.358Z,13.47
2022-09-24T08:03:28.045Z,13.46
2022-09-24T08:04:31.815Z,13.50
2022-09-24T08:05:34.502Z,13.54
2022-09-24T08:06:40.506Z,13.55
2022-09-24T08:07:55.499Z,13.64
2022-09-24T08:08:58.365Z,13.52
2022-09-24T08:10:01.578Z,13.61
2022-09-24T08:11:05.690Z,13.69
2022-09-24T08:12:09.563Z,13.73
2022-09-24T08:13:12.195Z,13.83
2022-09-24T08:14:14.808Z,13.83
2022-09-24T08:15:17.615Z,13.81
2022-09-24T08:16:21.461Z,13.79
2022-09-24T08:17:24.225Z,13.85
2022-09-24T08:18:28.026Z,13.74
2022-09-24T08:19:33.635Z,13.70
2022-09-24T08:20:37.988Z,13.68
2022-09-24T08:21:40.375Z,13.66
2022-09-24T08:22:43.018Z,13.58
2022-09-24T08:23:45.716Z,13.49
2022-09-24T08:24:48.093Z,13.40
2022-09-24T08:25:50.798Z,13.45
2022-09-24T08:26:53.277Z,13.42
2022-09-24T08:27:55.626Z,13.42
2022-09-24T08:28:58.536Z,13.49
2022-09-24T08:30:01.177Z,13.47
2022-09-24T08:31:08.870Z,13.46
2022-09-24T08:32:11.817Z,13.46
2022-09-24T08:33:15.411Z,13.60
2022-09-24T08:34:17.881Z,13.77
2022-09-24T08:35:20.340Z,13.81
2022-09-24T08:36:22.713Z,13.80
2022-09-24T08:37:25.348Z,13.91
2022-09-24T08:40:41.173Z,13.95
2022-09-24T08:42:12.863Z,13.93
2022-09-24T08:43:45.496Z,13.78
2022-09-24T08:45:07.799Z,13.67
2022-09-24T08:46:37.367Z,13.59
2022-09-24T08:47:46.001Z,13.57
2022-09-24T08:48:52.937Z,13.54
2022-09-24T08:50:02.344Z,13.49
2022-09-24T08:51:11.845Z,13.59
2022-09-24T08:52:33.903Z,13.67
2022-09-24T08:53:49.038Z,13.71
2022-09-24T08:54:52.990Z,13.64
2022-09-24T08:56:03.041Z,13.61
2022-09-24T08:57:13.060Z,13.79
2022-09-24T08:58:15.193Z,13.85
2022-09-24T08:59:30.382Z,13.79
2022-09-24T09:00:39.570Z,13.77
2022-09-24T09:01:57.364Z,13.84
2022-09-24T09:03:14.315Z,13.96
2022-09-24T09:04:30.804Z,14.07
2022-09-24T09:06:01.485Z,14.12
2022-09-24T09:07:13.278Z,14.39
2022-09-24T09:08:50.601Z,14.28
2022-09-24T09:09:59.981Z,14.15
2022-09-24T09:11:04.705Z,14.17
2022-09-24T09:12:14.216Z,14.15
2022-09-24T09:13:22.764Z,14.24
2022-09-24T09:14:42.126Z,14.20
2022-09-24T09:15:54.198Z,14.36
2022-09-24T09:17:02.822Z,14.40
2022-09-24T09:18:24.832Z,14.34
2022-09-24T09:19:37.041Z,14.26
2022-09-24T09:20:42.838Z,14.20
2022-09-24T09:22:13.028Z,14.21
2022-09-24T09:23:40.959Z,14.22
2022-09-24T09:24:52.566Z,14.10
2022-09-24T09:25:57.079Z,14.08
2022-09-24T09:27:00.111Z,14.10
2022-09-24T09:28:14.252Z,14.17
2022-09-24T09:29:17.028Z,14.10
2022-09-24T09:30:21.776Z,14.13
2022-09-24T09:31:44.132Z,14.25
2022-09-24T09:33:09.152Z,14.49
2022-09-24T09:34:41.700Z,14.48
2022-09-24T09:36:19.831Z,14.69
2022-09-24T09:38:03.964Z,14.68
2022-09-24T09:39:31.306Z,14.54
2022-09-24T09:40:42.056Z,14.44
2022-09-24T09:41:55.927Z,14.44
2022-09-24T09:43:09.142Z,14.48
2022-09-24T09:44:19.264Z,14.55
2022-09-24T09:45:54.289Z,14.55
2022-09-24T09:47:35.931Z,14.50
2022-09-24T09:49:05.394Z,14.53
2022-09-24T09:50:18.018Z,14.45
2022-09-24T09:51:24.021Z,14.59
2022-09-24T09:52:29.452Z,14.55
2022-09-24T09:53:32.459Z,14.53
2022-09-24T09:54:39.437Z,14.48
2022-09-24T09:55:41.896Z,14.37
2022-09-24T09:56:50.219Z,14.44
2022-09-24T09:57:54.255Z,14.51
2022-09-24T09:59:07.007Z,14.63
2022-09-24T10:00:26.808Z,14.75
2022-09-24T10:01:34.932Z,14.85
2022-09-24T10:04:05.107Z,14.91
2022-09-24T10:05:26.490Z,14.85
2022-09-24T10:06:55.839Z,14.94
2022-09-24T10:07:58.259Z,15.21
2022-09-24T10:09:19.733Z,15.52
2022-09-24T10:10:25.231Z,15.76
2022-09-24T10:11:27.656Z,15.81
2022-09-24T10:12:30.588Z,15.49
2022-09-24T10:13:33.102Z,15.38
2022-09-24T10:14:35.501Z,15.83
2022-09-24T10:15:55.583Z,15.97
2022-09-24T10:17:05.223Z,16.37
2022-09-24T10:18:14.471Z,16.71
2022-09-24T10:19:25.826Z,16.83
2022-09-24T10:20:31.254Z,16.47
2022-09-24T10:21:36.137Z,16.16
2022-09-24T10:22:51.625Z,15.85
2022-09-24T10:24:00.277Z,15.73
2022-09-24T10:25:03.926Z,15.71
2022-09-24T10:26:07.393Z,15.58
2022-09-24T10:27:14.324Z,15.50
2022-09-24T10:28:38.418Z,15.64
2022-09-24T10:29:59.704Z,15.73
2022-09-24T10:31:10.014Z,15.62
2022-09-24T10:32:26.849Z,15.65
2022-09-24T10:33:40.205Z,15.83
2022-09-24T10:34:42.525Z,15.77
2022-09-24T10:35:44.829Z,15.46
2022-09-24T10:37:00.891Z,15.46
2022-09-24T10:38:19.729Z,15.54
2022-09-24T10:39:22.713Z,15.51
2022-09-24T10:40:39.745Z,15.56
2022-09-24T10:41:50.279Z,15.54
2022-09-24T10:42:58.328Z,15.40
2022-09-24T10:44:11.600Z,15.38
2022-09-24T10:45:15.967Z,15.37
2022-09-24T10:46:41.164Z,15.37
2022-09-24T10:47:57.455Z,15.46
2022-09-24T10:49:23.817Z,15.54
2022-09-24T10:50:44.545Z,15.77
2022-09-24T10:51:54.843Z,16.17
2022-09-24T10:53:06.593Z,16.38
2022-09-24T10:54:36.954Z,16.46
2022-09-24T10:56:00.852Z,16.36
2022-09-24T10:57:31.994Z,16.20
2022-09-24T10:58:54.520Z,16.06
2022-09-24T11:00:22.533Z,16.13
2022-09-24T11:01:57.506Z,15.99
2022-09-24T11:03:29.517Z,15.77
2022-09-24T11:04:58.768Z,15.74
2022-09-24T11:06:31.542Z,15.85
2022-09-24T11:08:00.265Z,15.68
2022-09-24T11:09:25.486Z,15.37
2022-09-24T11:10:55.516Z,15.58
2022-09-24T11:12:15.645Z,15.85
2022-09-24T11:13:42.805Z,16.01
2022-09-24T11:15:11.930Z,16.24
2022-09-24T11:16:35.234Z,15.93
2022-09-24T11:17:54.581Z,15.87
2022-09-24T11:19:07.382Z,15.91
2022-09-24T11:20:33.663Z,16.03
2022-09-24T11:22:20.447Z,16.42
2022-09-24T11:23:39.172Z,16.75
2022-09-24T11:24:48.654Z,16.94
2022-09-24T11:26:02.653Z,16.77
2022-09-24T11:27:26.836Z,16.63
2022-09-24T11:28:31.845Z,16.65
2022-09-24T11:29:52.092Z,16.64
2022-09-24T11:31:17.250Z,16.18
2022-09-24T11:32:44.314Z,16.24
2022-09-24T11:33:54.531Z,16.20
2022-09-24T11:35:06.293Z,15.95
2022-09-24T11:36:32.720Z,15.99
2022-09-24T11:37:54.060Z,16.06
2022-09-24T11:39:41.229Z,16.18
2022-09-24T11:41:00.243Z,16.26
2022-09-24T11:42:52.397Z,16.52
2022-09-24T11:44:04.247Z,16.67
2022-09-24T11:45:31.227Z,16.94
2022-09-24T11:46:48.377Z,17.04
2022-09-24T11:47:59.314Z,17.02
2022-09-24T11:49:23.014Z,16.41
2022-09-24T11:50:47.967Z,16.55
2022-09-24T11:52:18.069Z,16.93
2022-09-24T11:53:42.906Z,17.18
2022-09-24T11:55:23.612Z,17.06
2022-09-24T11:56:31.970Z,16.84
2022-09-24T11:57:41.763Z,16.75
2022-09-24T11:58:58.927Z,16.59
2022-09-24T12:00:20.834Z,16.81
2022-09-24T12:01:28.305Z,16.64
2022-09-24T12:02:49.402Z,16.53
2022-09-24T12:04:10.530Z,16.83
2022-09-24T12:05:21.320Z,16.71
2022-09-24T12:06:37.066Z,16.60
2022-09-24T12:08:09.060Z,16.91
2022-09-24T12:09:26.333Z,17.10
2022-09-24T12:10:59.963Z,17.19
2022-09-24T12:12:16.154Z,16.90
2022-09-24T12:14:21.402Z,16.83
2022-09-24T12:15:43.373Z,16.84
2022-09-24T12:16:57.697Z,16.91
2022-09-24T12:18:40.808Z,16.90
2022-09-24T12:20:28.784Z,17.12
2022-09-24T12:21:42.011Z,17.21
2022-09-24T12:22:48.229Z,17.11
2022-09-24T12:23:52.510Z,17.38
2022-09-24T12:24:59.421Z,17.31
2022-09-24T12:26:05.804Z,17.43
2022-09-24T12:27:13.916Z,17.48
2022-09-24T12:28:39.194Z,17.15
2022-09-24T12:30:37.699Z,17.00
2022-09-24T12:32:06.834Z,17.08
2022-09-24T12:33:39.554Z,17.12
2022-09-24T12:35:05.402Z,17.23
2022-09-24T12:36:28.175Z,17.30
2022-09-24T12:37:34.856Z,17.28
2022-09-24T12:38:49.610Z,17.27
2022-09-24T12:39:59.817Z,17.21
2022-09-24T12:41:16.580Z,17.09
2022-09-24T12:42:21.763Z,17.15
2022-09-24T12:43:35.496Z,17.14
2022-09-24T12:45:00.636Z,17.39
2022-09-24T12:46:05.955Z,17.58
2022-09-24T12:47:31.629Z,17.74
2022-09-24T12:48:38.602Z,17.70
2022-09-24T12:49:41.187Z,17.80
2022-09-24T12:50:55.674Z,17.97
2022-09-24T12:52:16.414Z,17.63
2022-09-24T12:53:24.626Z,17.73
2022-09-24T12:54:32.407Z,17.42
2022-09-24T12:55:35.668Z,17.36
2022-09-24T12:56:37.990Z,17.32
2022-09-24T12:57:43.270Z,17.41
2022-09-24T12:58:46.398Z,17.66
2022-09-24T12:59:51.380Z,17.77
2022-09-24T13:01:11.607Z,17.68
2022-09-24T13:02:17.440Z,17.72
2022-09-24T13:03:35.689Z,17.84
2022-09-24T13:04:38.220Z,17.68
2022-09-24T13:05:40.747Z,17.68
2022-09-24T13:06:46.464Z,17.55
2022-09-24T13:08:20.928Z,17.61
2022-09-24T13:09:41.103Z,17.23
2022-09-24T13:10:55.842Z,17.32
2022-09-24T13:12:31.408Z,17.67
2022-09-24T13:13:36.712Z,17.54
2022-09-24T13:14:43.335Z,17.58
2022-09-24T13:15:46.699Z,17.59
2022-09-24T13:16:52.967Z,17.69
2022-09-24T13:18:25.188Z,17.91
2022-09-24T13:19:36.871Z,17.97
2022-09-24T13:20:43.800Z,17.90
2022-09-24T13:21:54.889Z,18.03
2022-09-24T13:22:59.893Z,18.04
2022-09-24T13:24:11.492Z,18.07
2022-09-24T13:25:13.874Z,17.75
2022-09-24T13:26:24.827Z,18.07
2022-09-24T13:27:29.844Z,18.11
2022-09-24T13:28:38.776Z,18.20
2022-09-24T13:29:41.802Z,18.30
2022-09-24T13:30:46.683Z,18.14
2022-09-24T13:31:59.849Z,18.50
2022-09-24T13:33:16.507Z,18.06
2022-09-24T13:34:29.994Z,17.79
2022-09-24T13:35:42.049Z,17.77
2022-09-24T13:36:49.473Z,18.40
2022-09-24T13:38:08.694Z,18.77
2022-09-24T13:39:19.710Z,18.77
2022-09-24T13:40:27.918Z,18.68
2022-09-24T13:42:01.389Z,18.63
2022-09-24T13:43:07.451Z,18.55
2022-09-24T13:44:34.169Z,18.98
2022-09-24T13:45:41.918Z,19.19
2022-09-24T13:46:46.969Z,19.38
2022-09-24T13:48:05.423Z,19.31
2022-09-24T13:49:16.204Z,19.64
2022-09-24T13:50:26.181Z,19.75
2022-09-24T13:51:31.266Z,19.47
2022-09-24T13:52:42.696Z,19.25
2022-09-24T13:54:06.913Z,19.34
2022-09-24T13:55:19.180Z,19.17
2022-09-24T13:56:22.197Z,19.08
2022-09-24T13:57:26.673Z,18.84
2022-09-24T13:58:41.310Z,18.60
2022-09-24T13:59:43.582Z,18.26
2022-09-24T14:00:45.789Z,18.46
2022-09-24T14:01:48.152Z,18.47
2022-09-24T14:02:56.286Z,18.49
2022-09-24T14:04:00.249Z,18.76
2022-09-24T14:05:03.031Z,19.02
2022-09-24T14:06:14.478Z,19.19
2022-09-24T14:07:16.820Z,19.04
2022-09-24T14:08:22.395Z,19.17
2022-09-24T14:09:36.008Z,19.31
2022-09-24T14:10:40.179Z,19.75
2022-09-24T14:11:53.913Z,19.86
2022-09-24T14:13:22.933Z,19.98
2022-09-24T14:14:28.059Z,19.69
2022-09-24T14:15:30.390Z,19.71
2022-09-24T14:16:32.739Z,19.22
2022-09-24T14:17:35.308Z,18.67
2022-09-24T14:18:37.666Z,18.55
2022-09-24T14:19:40.474Z,18.83
2022-09-24T14:20:43.012Z,19.01
2022-09-24T14:21:50.789Z,19.07
2022-09-24T14:22:53.094Z,19.18
2022-09-24T14:24:12.608Z,18.77
2022-09-24T14:25:22.575Z,18.49
2022-09-24T14:26:41.902Z,18.54
2022-09-24T14:27:49.020Z,18.45
2022-09-24T14:28:52.180Z,18.29
2022-09-24T14:30:00.565Z,18.27
2022-09-24T14:31:08.742Z,18.21
2022-09-24T14:32:23.151Z,18.28
2022-09-24T14:33:32.666Z,18.13
2022-09-24T14:34:36.108Z,18.03
2022-09-24T14:35:39.862Z,18.06
2022-09-24T14:36:42.257Z,18.26
2022-09-24T14:37:52.042Z,18.30
2022-09-24T14:39:04.420Z,18.24
2022-09-24T14:40:11.690Z,18.12
2022-09-24T14:41:18.789Z,18.19
2022-09-24T14:42:29.607Z,17.93
2022-09-24T14:43:54.783Z,17.92
2022-09-24T14:44:57.491Z,17.90
2022-09-24T14:46:22.802Z,18.01
2022-09-24T14:47:29.004Z,18.03
2022-09-24T14:48:33.652Z,17.96